Aeroporto :
LOGIN :

Iscrizione | Disclaimer

   EN    FR    IT 

 










Sommario :    VFR   VFR Marginale   IFR   IFR Intensivo   IFR Molto Intensivo
Visibilità : 
Base nubi : 
>= 8 km
>= 3000ft
5 / 8 km
1000 / 3000 ft
1500m / 5 km
500 / 1000 ft
800 / 1500m
200 / 500 ft
< 800m
< 200 ft
Simboli :   Temporali  Nebbia  Neve Forte  Precipitazioni Forti  Vento > 20 kt
SIGMETs :   Varie  Temporali  Ghiacco  Turbolenza  Onda orograficha  Ceneri Vulcaniche







- Altitudine del aeroporto : 53 ft
- Codice IATA : HRT


EGXU - RAF Linton-on-Ouse

ULTIMO METAR :
  • 180950Z 15021KT 9000 RA FEW012 OVC022 09/08 Q1004 WHT TEMPO 7000 RA GRN

METARs OBSOLETI :
  • 180850Z 15021G31KT 9000 -RA SCT013 OVC030 09/07 Q1004 GRN TEMPO 7000 RA GRN
  • 180750Z 14015KT 9999 BKN012 OVC030 09/07 Q1005 GRN TEMPO 16020G35KT GRN

TAF TAF EGXU
Valido dal 18 a 09 ore il 18 a 18 ore UTC


180748Z 1809/1818 15015G25KT 9999 BKN018
TEMPO 1809/1817 16020G35KT 7000 RA BKN010
PROB40
TEMPO 1809/1818 4500 +RA
TEMPO 1817/1818 7000 RA BKN010
Nessun NOTAM noto per questo aeroporto.
2 SIGMETs conosciuti per la FIR London (EGTT) :
 
Forte onda orograficha
EGTT SIGMET 04 VALID 180700/181100 EGRR
EGTT LONDON FIR SEV MTW FCST WI N5220 W00530 - N5500 W00530 - N5500 W00015 - N5024 W00255 - N4959 W00548 - N5220 W00530 - N5220 W00530 FL030/250 STNR NC=
Turbolenza severa
EGTT SIGMET 03 VALID 180700/181100 EGRR
EGTT LONDON FIR SEV TURB FCST WI N4850 W00800 - N5100 W00800 - N5220 W00530 - N5500 W00530 - N5500 W00247 - N5101 W00311 - N4958 W00208 - N4850 W00800 SFC/FL060 MOV E 10KT NC=



MetMap, La meteo Aeronautica in un colpo d'occhio ! - Copyright ORBIFLY Dicembre 2007 - Disclaimer

ORBIFLY MET'MAP TEAM :

Programmazione e sviluppo : Alexandra Zaïnal
Concezione e sviluppo : Baudouin d'Aumeries
Co-Programmazione e sviluppo : Marc-Olivier Méhu
Supporto tecnico e logistico : Manuel Goepfert
Aiuto per la traduzione : Arnaldo La Scala

Contatto : metmap@orbifly.com




FONTI E CREDITI :

   NOAA